createdAt,value
2022-12-23T00:01:51.256Z,100.00
2022-12-23T00:04:18.285Z,100.00
2022-12-23T00:06:45.238Z,100.00
2022-12-23T00:09:12.202Z,100.00
2022-12-23T00:11:58.973Z,100.00
2022-12-23T00:14:46.465Z,100.00
2022-12-23T00:17:28.334Z,100.00
2022-12-23T00:19:55.360Z,100.00
2022-12-23T00:22:42.132Z,100.00
2022-12-23T00:25:09.381Z,100.00
2022-12-23T00:27:37.827Z,100.00
2022-12-23T00:30:07.253Z,100.00
2022-12-23T00:32:34.260Z,100.00
2022-12-23T00:35:01.069Z,100.00
2022-12-23T00:37:31.837Z,100.00
2022-12-23T00:40:17.100Z,100.00
2022-12-23T00:42:55.728Z,100.00
2022-12-23T00:45:22.747Z,100.00
2022-12-23T00:48:08.364Z,100.00
2022-12-23T00:50:39.581Z,100.00
2022-12-23T00:53:06.989Z,100.00
2022-12-23T00:55:33.838Z,100.00
2022-12-23T00:58:00.763Z,100.00
2022-12-23T01:00:46.702Z,100.00
2022-12-23T01:03:34.072Z,100.00
2022-12-23T01:06:02.602Z,100.00
2022-12-23T01:08:29.885Z,100.00
2022-12-23T01:10:56.824Z,100.00
2022-12-23T01:13:23.788Z,100.00
2022-12-23T01:15:50.589Z,100.00
2022-12-23T01:18:17.389Z,100.00
2022-12-23T01:20:44.226Z,100.00
2022-12-23T01:23:10.999Z,100.00
2022-12-23T01:25:37.848Z,100.00
2022-12-23T01:28:04.783Z,100.00
2022-12-23T01:30:31.571Z,100.00
2022-12-23T01:32:58.421Z,100.00
2022-12-23T01:35:25.252Z,100.00
2022-12-23T01:37:52.050Z,100.00
2022-12-23T01:40:18.955Z,100.00
2022-12-23T01:42:47.395Z,100.00
2022-12-23T01:45:20.581Z,100.00
2022-12-23T01:48:06.261Z,100.00
2022-12-23T01:50:43.124Z,100.00
2022-12-23T01:53:15.911Z,100.00
2022-12-23T01:55:54.583Z,100.00
2022-12-23T01:58:27.899Z,100.00
2022-12-23T02:01:15.885Z,100.00
2022-12-23T02:03:44.163Z,100.00
2022-12-23T02:06:42.918Z,100.00
2022-12-23T02:09:22.536Z,100.00
2022-12-23T02:12:10.408Z,100.00
2022-12-23T02:15:14.430Z,100.00
2022-12-23T02:17:56.150Z,100.00
2022-12-23T02:20:44.049Z,100.00
2022-12-23T02:23:35.731Z,100.00
2022-12-23T02:26:21.365Z,100.00
2022-12-23T02:29:32.742Z,100.00
2022-12-23T02:32:26.072Z,100.00
2022-12-23T02:35:34.764Z,100.00
2022-12-23T02:38:16.539Z,100.00
2022-12-23T02:41:04.892Z,100.00
2022-12-23T02:43:46.337Z,100.00
2022-12-23T02:46:39.463Z,100.00
2022-12-23T02:49:15.432Z,100.00
2022-12-23T02:51:46.700Z,100.00
2022-12-23T02:54:18.789Z,100.00
2022-12-23T02:56:50.228Z,100.00
2022-12-23T02:59:22.155Z,100.00
2022-12-23T04:43:06.698Z,100.00
2022-12-23T04:45:33.504Z,100.00
2022-12-23T04:48:00.382Z,100.00
2022-12-23T04:50:27.233Z,100.00
2022-12-23T04:52:54.100Z,100.00
2022-12-23T04:55:20.956Z,100.00
2022-12-23T04:57:47.877Z,100.00
2022-12-23T05:00:15.210Z,100.00
2022-12-23T05:02:42.117Z,100.00
2022-12-23T05:05:09.203Z,100.00
2022-12-23T07:26:23.383Z,100.00
2022-12-23T07:28:50.225Z,100.00
2022-12-23T07:31:17.209Z,100.00
2022-12-23T07:33:44.163Z,100.00
2022-12-23T07:36:11.067Z,100.00
2022-12-23T07:38:38.104Z,100.00
2022-12-23T07:41:05.077Z,98.65
2022-12-23T07:43:32.171Z,95.70
2022-12-23T07:46:00.684Z,93.47
2022-12-23T07:48:28.347Z,92.10
2022-12-23T07:51:01.139Z,88.39
2022-12-23T07:53:28.445Z,84.49
2022-12-23T07:55:56.770Z,83.68
2022-12-23T07:58:24.405Z,82.15
2022-12-23T08:00:51.283Z,78.74
2022-12-23T08:03:18.211Z,77.49
2022-12-23T08:05:45.265Z,77.16
2022-12-23T08:08:12.780Z,75.83
2022-12-23T08:10:46.185Z,74.27
2022-12-23T08:13:15.347Z,73.14
2022-12-23T08:15:42.140Z,72.80
2022-12-23T08:18:09.063Z,72.45
2022-12-23T08:20:36.061Z,71.81
2022-12-23T08:23:02.908Z,72.53
2022-12-23T08:25:29.874Z,72.49
2022-12-23T08:27:56.687Z,74.27
2022-12-23T08:30:23.573Z,73.20
2022-12-23T08:32:50.505Z,72.55
2022-12-23T08:35:17.473Z,72.28
2022-12-23T08:37:44.464Z,72.05
2022-12-23T08:40:12.219Z,72.13
2022-12-23T08:42:39.171Z,71.32
2022-12-23T08:45:06.388Z,70.38
2022-12-23T08:47:34.779Z,70.64
2022-12-23T08:50:01.681Z,69.59
2022-12-23T08:52:28.624Z,69.38
2022-12-23T08:54:55.492Z,69.84
2022-12-23T08:57:22.287Z,69.39
2022-12-23T08:59:49.207Z,69.03
2022-12-23T09:02:16.561Z,69.25
2022-12-23T09:04:43.577Z,90.11
2022-12-23T09:07:10.399Z,83.81
2022-12-23T09:09:38.251Z,87.39
2022-12-23T09:12:05.330Z,78.04
2022-12-23T09:14:32.167Z,77.33
2022-12-23T09:16:59.117Z,75.79
2022-12-23T09:19:26.075Z,68.72
2022-12-23T09:21:52.946Z,69.28
2022-12-23T09:24:19.827Z,72.01
2022-12-23T09:26:46.688Z,70.13
2022-12-23T09:29:13.615Z,70.66
2022-12-23T09:31:40.620Z,73.36
2022-12-23T09:34:07.524Z,72.97
2022-12-23T09:36:34.478Z,72.71
2022-12-23T09:39:01.429Z,76.81
2022-12-23T09:41:39.203Z,73.08
2022-12-23T09:44:26.737Z,76.66
2022-12-23T09:47:04.753Z,71.64
2022-12-23T09:49:32.811Z,74.08
2022-12-23T09:52:05.322Z,75.69
2022-12-23T09:54:47.706Z,72.82
2022-12-23T09:57:21.444Z,75.94
2022-12-23T10:00:23.965Z,70.93
2022-12-23T10:03:09.577Z,73.41
2022-12-23T10:05:40.606Z,75.06
2022-12-23T10:08:16.696Z,71.36
2022-12-23T10:10:48.674Z,74.43
2022-12-23T10:13:25.227Z,74.36
2022-12-23T10:15:53.206Z,70.93
2022-12-23T10:18:41.552Z,69.46
2022-12-23T10:21:17.903Z,70.68
2022-12-23T10:23:50.471Z,70.31
2022-12-23T10:26:26.184Z,70.81
2022-12-23T10:29:08.501Z,69.85
2022-12-23T10:31:56.870Z,68.24
2022-12-23T10:34:58.953Z,69.07
2022-12-23T10:37:41.934Z,67.46
2022-12-23T10:40:17.956Z,68.38
2022-12-23T10:43:07.846Z,65.91
2022-12-23T10:45:44.048Z,66.85
2022-12-23T10:48:33.078Z,65.55
2022-12-23T10:51:17.586Z,63.66
2022-12-23T10:53:59.355Z,62.19
2022-12-23T10:56:28.347Z,60.93
2022-12-23T10:58:57.999Z,59.26
2022-12-23T11:01:27.432Z,58.82
2022-12-23T11:04:00.702Z,58.99
2022-12-23T11:06:33.253Z,58.89
2022-12-23T11:09:05.415Z,58.36
2022-12-23T11:12:00.277Z,58.59
2022-12-23T11:14:51.536Z,59.11
2022-12-23T11:17:22.998Z,59.18
2022-12-23T11:20:12.911Z,59.77
2022-12-23T11:23:07.180Z,61.67
2022-12-23T11:25:42.888Z,60.85
2022-12-23T11:28:12.570Z,61.64
2022-12-23T11:31:01.232Z,61.91
2022-12-23T11:33:34.449Z,63.09
2022-12-23T11:36:02.975Z,64.12
2022-12-23T11:38:30.168Z,65.12
2022-12-23T11:40:57.779Z,65.88
2022-12-23T11:43:26.734Z,66.43
2022-12-23T11:46:17.723Z,66.72
2022-12-23T11:48:51.319Z,66.85
2022-12-23T11:51:25.841Z,67.96
2022-12-23T11:54:00.051Z,68.04
2022-12-23T11:56:28.640Z,68.42
2022-12-23T11:59:05.422Z,68.51
2022-12-23T12:01:32.807Z,68.91
2022-12-23T12:04:20.834Z,68.79
2022-12-23T12:06:56.350Z,69.22
2022-12-23T12:09:25.167Z,69.83
2022-12-23T12:12:03.828Z,69.67
2022-12-23T12:14:48.577Z,70.17
2022-12-23T12:17:33.489Z,69.92
2022-12-23T12:20:39.244Z,69.85
2022-12-23T12:23:21.539Z,69.79
2022-12-23T12:26:03.010Z,69.76
2022-12-23T12:28:39.028Z,69.67
2022-12-23T12:31:15.572Z,69.63
2022-12-23T12:33:51.179Z,69.16
2022-12-23T12:36:32.971Z,69.24
2022-12-23T12:39:00.443Z,69.29
2022-12-23T12:41:48.508Z,69.40
2022-12-23T12:44:43.314Z,69.44
2022-12-23T12:47:44.813Z,69.38
2022-12-23T12:50:11.687Z,69.11
2022-12-23T12:52:42.082Z,68.74
2022-12-23T12:55:22.998Z,68.35
2022-12-23T12:57:49.892Z,67.89
2022-12-23T13:00:19.508Z,66.51
2022-12-23T13:03:01.602Z,64.37
2022-12-23T13:05:56.791Z,61.73
2022-12-23T13:08:51.339Z,58.38
2022-12-23T13:11:28.981Z,56.28
2022-12-23T13:14:12.727Z,53.19
2022-12-23T13:16:52.772Z,51.94
2022-12-23T13:19:42.543Z,50.15
2022-12-23T13:22:15.425Z,49.57
2022-12-23T13:24:55.178Z,48.11
2022-12-23T13:27:34.581Z,46.50
2022-12-23T13:30:15.011Z,46.12
2022-12-23T13:32:48.100Z,44.49
2022-12-23T13:36:11.331Z,43.71
2022-12-23T13:38:56.813Z,42.52
2022-12-23T13:41:36.149Z,41.75
2022-12-23T13:44:06.448Z,43.00
2022-12-23T13:46:54.899Z,43.03
2022-12-23T13:49:30.560Z,43.28
2022-12-23T13:52:22.141Z,42.37
2022-12-23T13:55:22.932Z,42.41
2022-12-23T13:58:20.458Z,43.55
2022-12-23T14:01:08.431Z,45.05
2022-12-23T14:03:37.531Z,46.35
2022-12-23T14:06:26.254Z,48.13
2022-12-23T14:08:55.011Z,49.54
2022-12-23T14:11:30.833Z,51.62
2022-12-23T14:14:04.008Z,52.93
2022-12-23T14:16:49.279Z,54.68
2022-12-23T14:19:18.944Z,56.07
2022-12-23T14:22:11.016Z,59.43
2022-12-23T14:24:50.049Z,57.30
2022-12-23T14:27:16.853Z,58.97
2022-12-23T14:30:11.515Z,62.71
2022-12-23T14:32:52.042Z,59.84
2022-12-23T14:35:27.206Z,60.20
2022-12-23T14:38:31.314Z,60.67
2022-12-23T14:40:59.730Z,61.58
2022-12-23T14:43:45.915Z,61.51
2022-12-23T14:46:34.849Z,61.72
2022-12-23T14:49:29.657Z,61.73
2022-12-23T14:51:52.119Z,62.15
2022-12-23T14:54:38.761Z,62.99
2022-12-23T14:57:15.963Z,63.04
2022-12-23T14:59:56.287Z,63.30
2022-12-23T15:02:34.025Z,63.93
2022-12-23T15:05:01.921Z,64.49
2022-12-23T15:07:39.420Z,64.73
2022-12-23T15:10:17.916Z,64.97
2022-12-23T15:12:49.384Z,65.32
2022-12-23T15:15:20.663Z,65.52
2022-12-23T15:17:48.851Z,66.17
2022-12-23T15:20:26.701Z,66.82
2022-12-23T15:22:53.589Z,67.23
2022-12-23T15:25:33.689Z,67.78
2022-12-23T15:28:03.128Z,68.22
2022-12-23T15:30:34.144Z,68.60
2022-12-23T15:33:16.127Z,68.80
2022-12-23T15:35:52.744Z,68.94
2022-12-23T15:38:22.455Z,69.18
2022-12-23T15:41:02.198Z,69.15
2022-12-23T15:43:29.874Z,69.29
2022-12-23T15:46:09.059Z,69.67
2022-12-23T15:48:38.028Z,69.81
2022-12-23T15:51:14.308Z,69.82
2022-12-23T15:53:45.496Z,69.74
2022-12-23T15:56:29.841Z,69.50
2022-12-23T15:58:57.303Z,69.30
2022-12-23T16:01:25.466Z,69.23
2022-12-23T16:03:57.110Z,69.16
2022-12-23T16:06:33.094Z,69.22
2022-12-23T16:09:06.773Z,69.28
2022-12-23T16:11:42.326Z,68.99
2022-12-23T16:14:33.337Z,69.15
2022-12-23T16:17:13.677Z,69.14
2022-12-23T16:19:53.992Z,69.09
2022-12-23T16:22:20.855Z,69.03
2022-12-23T16:24:52.595Z,69.05
2022-12-23T16:27:32.513Z,69.37
2022-12-23T16:30:02.795Z,69.35
2022-12-23T16:32:29.752Z,69.90
2022-12-23T16:34:56.686Z,69.94
2022-12-23T16:37:24.791Z,70.08
2022-12-23T16:39:51.778Z,70.28
2022-12-23T16:42:19.226Z,70.40
2022-12-23T16:44:46.089Z,70.33
2022-12-23T16:47:17.589Z,70.38
2022-12-23T16:49:45.327Z,70.24
2022-12-23T16:52:14.416Z,70.39
2022-12-23T16:54:42.717Z,70.83
2022-12-23T16:57:10.662Z,70.99
2022-12-23T16:59:41.197Z,71.08
2022-12-23T17:02:20.799Z,71.41
2022-12-23T17:04:47.681Z,71.74
2022-12-23T17:07:14.568Z,72.67
2022-12-23T17:09:41.489Z,72.04
2022-12-23T17:12:10.170Z,72.17
2022-12-23T17:14:37.094Z,72.68
2022-12-23T17:17:13.364Z,72.90
2022-12-23T17:19:40.387Z,74.48
2022-12-23T17:22:12.518Z,72.97
2022-12-23T17:24:39.605Z,72.96
2022-12-23T17:27:15.182Z,74.32
2022-12-23T17:29:42.336Z,75.15
2022-12-23T17:32:18.229Z,75.72
2022-12-23T17:34:45.453Z,75.72
2022-12-23T17:37:14.596Z,76.52
2022-12-23T17:39:43.079Z,76.92
2022-12-23T17:42:28.228Z,78.71
2022-12-23T17:44:55.090Z,78.44
2022-12-23T17:47:22.799Z,78.96
2022-12-23T17:49:49.895Z,80.07
2022-12-23T17:52:19.912Z,79.39
2022-12-23T17:54:48.927Z,79.46
2022-12-23T17:57:25.358Z,79.63
2022-12-23T17:59:53.903Z,79.97
2022-12-23T18:02:32.435Z,80.96
2022-12-23T18:04:59.975Z,81.74
2022-12-23T18:07:26.925Z,81.98
2022-12-23T18:09:54.207Z,83.29
2022-12-23T18:12:39.868Z,83.77
2022-12-23T18:15:18.614Z,83.88
2022-12-23T18:17:45.517Z,83.61
2022-12-23T18:20:18.307Z,85.75
2022-12-23T18:22:50.660Z,86.21
2022-12-23T18:25:27.782Z,86.09
2022-12-23T18:27:54.882Z,85.33
2022-12-23T18:30:22.566Z,85.41
2022-12-23T18:32:49.457Z,87.09
2022-12-23T18:35:30.859Z,88.24
2022-12-23T18:37:59.382Z,88.12
2022-12-23T18:40:32.571Z,88.75
2022-12-23T18:43:00.344Z,90.33
2022-12-23T18:45:38.669Z,90.52
2022-12-23T18:48:07.753Z,91.38
2022-12-23T18:50:37.082Z,91.02
2022-12-23T18:53:05.009Z,91.36
2022-12-23T18:55:32.102Z,91.57
2022-12-23T18:58:00.752Z,90.85
2022-12-23T19:00:30.762Z,90.79
2022-12-23T19:02:58.014Z,91.06
2022-12-23T19:05:28.166Z,90.77
2022-12-23T19:07:57.732Z,90.71
2022-12-23T19:10:29.936Z,91.53
2022-12-23T19:12:57.089Z,91.41
2022-12-23T19:15:24.410Z,91.23
2022-12-23T19:17:51.272Z,91.34
2022-12-23T19:20:20.623Z,91.41
2022-12-23T19:22:48.246Z,91.23
2022-12-23T19:25:18.348Z,94.11
2022-12-23T19:27:45.930Z,94.75
2022-12-23T19:30:16.640Z,94.38
2022-12-23T19:32:44.081Z,94.99
2022-12-23T19:35:15.215Z,94.72
2022-12-23T19:37:42.868Z,94.42
2022-12-23T19:40:10.372Z,93.77
2022-12-23T19:42:39.048Z,92.81
2022-12-23T19:45:08.683Z,93.42
2022-12-23T19:47:36.345Z,94.90
2022-12-23T19:50:04.400Z,95.44
2022-12-23T19:52:34.684Z,95.21
2022-12-23T19:55:01.552Z,95.59
2022-12-23T19:57:28.492Z,95.86
2022-12-23T19:59:55.393Z,96.55
2022-12-23T20:02:23.652Z,96.40
2022-12-23T20:04:50.674Z,96.42
2022-12-23T20:07:17.614Z,96.96
2022-12-23T20:09:44.544Z,97.68
2022-12-23T20:12:11.595Z,98.33
2022-12-23T20:14:38.519Z,99.59
2022-12-23T20:17:05.439Z,99.49
2022-12-23T20:19:32.785Z,98.47
2022-12-23T20:22:00.103Z,98.36
2022-12-23T20:24:26.996Z,98.61
2022-12-23T20:26:53.891Z,98.86
2022-12-23T20:29:20.874Z,99.53
2022-12-23T20:31:47.755Z,100.00
2022-12-23T20:34:16.694Z,100.00
2022-12-23T20:36:43.819Z,100.00
2022-12-23T20:39:10.690Z,100.00
2022-12-23T20:41:37.525Z,100.00
2022-12-23T20:46:51.717Z,100.00
2022-12-23T20:49:18.720Z,100.00
2022-12-23T20:51:45.600Z,100.00
2022-12-23T20:54:12.928Z,100.00
2022-12-23T20:56:39.801Z,100.00
2022-12-23T20:59:06.788Z,100.00
2022-12-23T21:01:36.437Z,100.00
2022-12-23T21:04:09.945Z,100.00
2022-12-23T21:06:37.136Z,100.00
2022-12-23T21:09:05.965Z,100.00
2022-12-23T21:11:36.335Z,100.00
2022-12-23T21:14:06.831Z,100.00
2022-12-23T21:16:35.492Z,100.00
2022-12-23T21:19:03.151Z,100.00
2022-12-23T21:21:32.012Z,100.00
2022-12-23T21:24:02.390Z,100.00
2022-12-23T21:26:34.668Z,100.00
2022-12-23T21:29:16.210Z,100.00
2022-12-23T21:31:49.142Z,100.00
2022-12-23T21:34:25.835Z,100.00
2022-12-23T21:37:06.825Z,100.00
2022-12-23T21:39:54.614Z,100.00
2022-12-23T21:42:26.564Z,100.00
2022-12-23T21:44:53.492Z,100.00
2022-12-23T21:47:20.406Z,100.00
2022-12-23T21:49:47.406Z,100.00
2022-12-23T21:52:14.624Z,100.00
2022-12-23T21:54:41.516Z,100.00
2022-12-23T21:57:08.416Z,100.00
2022-12-23T21:59:35.759Z,100.00
2022-12-23T22:02:02.768Z,100.00
2022-12-23T22:04:29.633Z,100.00
2022-12-23T22:06:56.582Z,100.00
2022-12-23T22:09:24.688Z,100.00
2022-12-23T22:11:52.712Z,100.00
2022-12-23T22:14:19.934Z,100.00
2022-12-23T22:16:47.211Z,100.00
2022-12-23T22:19:14.264Z,100.00
2022-12-23T22:21:42.867Z,100.00
2022-12-23T22:24:10.229Z,100.00
2022-12-23T22:26:37.500Z,100.00
2022-12-23T22:29:06.224Z,100.00
2022-12-23T22:31:38.372Z,100.00
2022-12-23T22:34:06.302Z,100.00
2022-12-23T22:36:34.294Z,100.00
2022-12-23T22:39:02.243Z,100.00
2022-12-23T22:41:30.091Z,100.00
2022-12-23T22:43:57.281Z,100.00
2022-12-23T22:46:24.940Z,100.00
2022-12-23T22:48:52.558Z,100.00
2022-12-23T22:51:23.607Z,100.00
2022-12-23T22:53:50.562Z,100.00
2022-12-23T22:56:18.940Z,100.00
2022-12-23T22:58:45.853Z,100.00
